Time;durP1;ratioP1;P1;durP2;ratioP2;P2;SDS_P1;SDS_P2;PMS_P1;PMS_P2;Temp;Humidity;BMP_temperature;BMP_pressure;BME280_temperature;BME280_humidity;BME280_pressure;Samples;Min_cycle;Max_cycle;Signal;HPM_P1;HPM_P2
2022/06/21 00:00:15;;;;;;;1.42;1.20;;;16.60;1.40;;;17.75;100.00;95285.46;646816;216;31533;-73
2022/06/21 00:03:00;;;;;;;1.27;0.88;;;16.50;1.40;;;17.75;100.00;95285.13;645717;212;31691;-73
2022/06/21 00:05:42;;;;;;;1.33;0.90;;;16.50;1.40;;;17.60;100.00;95290.23;646930;216;31527;-73
2022/06/21 00:08:26;;;;;;;1.05;0.88;;;16.40;1.40;;;17.56;100.00;95298.83;646807;212;42171;-73
2022/06/21 00:11:27;;;;;;;1.50;1.20;;;16.30;1.40;;;17.64;100.00;95299.54;646217;216;31573;-73
2022/06/21 00:14:08;;;;;;;1.25;1.00;;;16.30;1.40;;;17.38;100.00;95293.94;645474;212;32361;-72
2022/06/21 00:16:53;;;;;;;2.20;1.00;;;16.20;1.40;;;17.22;100.00;95291.52;647042;212;31519;-73
2022/06/21 00:19:37;;;;;;;3.03;1.40;;;16.00;1.40;;;17.04;100.00;95296.39;618409;225;31820;-73
2022/06/21 00:22:20;;;;;;;1.40;1.10;;;15.80;1.40;;;16.90;100.00;95301.77;619163;226;31831;-73
2022/06/21 00:25:02;;;;;;;1.02;0.95;;;15.70;1.40;;;16.69;100.00;95310.16;647559;216;32108;-73
2022/06/21 00:27:46;;;;;;;2.12;1.17;;;15.50;1.40;;;16.61;100.00;95314.81;647159;216;31558;-73
2022/06/21 00:30:28;;;;;;;1.27;1.00;;;15.40;1.40;;;16.42;100.00;95317.78;618352;222;31824;-73
2022/06/21 00:35:51;;;;;;;1.10;0.70;;;15.30;1.40;;;16.56;100.00;95322.09;646165;216;31565;-73
2022/06/21 00:38:33;;;;;;;0.90;0.68;;;15.30;1.40;;;16.61;100.00;95322.53;645972;216;31494;-73
2022/06/21 00:41:14;;;;;;;0.90;0.90;;;15.30;1.40;;;16.40;100.00;95320.48;646638;216;31644;-73
2022/06/21 00:43:56;;;;;;;1.40;1.30;;;15.30;1.40;;;16.30;100.00;95320.98;647243;216;31519;-73
2022/06/21 00:46:39;;;;;;;0.88;0.80;;;15.30;1.40;;;16.27;100.00;95318.22;646440;212;31509;-74
2022/06/21 00:49:30;;;;;;;0.70;0.65;;;15.20;1.40;;;16.29;100.00;95320.61;647589;216;31536;-73
2022/06/21 00:53:03;;;;;;;1.50;1.30;;;15.20;1.40;;;16.28;100.00;95326.11;642471;216;31716;-73
2022/06/21 00:55:51;;;;;;;1.33;1.20;;;15.20;1.40;;;16.32;100.00;95328.35;646865;216;31547;-74
2022/06/21 00:58:33;;;;;;;1.17;1.08;;;15.20;1.40;;;16.24;100.00;95325.17;647155;216;32106;-73
2022/06/21 01:01:25;;;;;;;0.75;0.70;;;15.20;1.40;;;16.20;100.00;95327.15;646545;216;31561;-73
2022/06/21 01:04:22;;;;;;;1.20;0.95;;;15.10;1.40;;;16.27;100.00;95319.94;646411;216;31551;-73
2022/06/21 01:07:03;;;;;;;1.70;0.90;;;15.20;1.40;;;16.43;100.00;95318.73;646051;216;31939;-73
2022/06/21 01:09:46;;;;;;;1.83;0.75;;;15.20;1.40;;;16.17;100.00;95322.95;646738;216;32062;-73
2022/06/21 01:12:34;;;;;;;2.00;0.80;;;15.00;1.40;;;16.14;100.00;95329.09;646565;216;31510;-73
2022/06/21 01:15:20;;;;;;;1.60;0.90;;;15.00;1.40;;;16.08;100.00;95330.02;645830;216;31581;-73
2022/06/21 01:18:01;;;;;;;0.55;0.40;;;15.00;1.40;;;16.31;100.00;95331.63;647162;216;31459;-73
2022/06/21 01:20:44;;;;;;;0.60;0.50;;;15.00;1.40;;;16.37;100.00;95332.56;647145;216;32063;-73
2022/06/21 01:23:59;;;;;;;0.70;0.68;;;15.00;1.40;;;16.31;100.00;95329.81;646835;216;31512;-73
2022/06/21 01:26:45;;;;;;;1.10;0.80;;;14.90;1.40;;;16.45;100.00;95324.29;648610;216;31827;-74
2022/06/21 01:29:26;;;;;;;0.80;0.52;;;15.00;1.40;;;16.16;100.00;95322.91;646686;216;31567;-73
2022/06/21 01:32:08;;;;;;;1.20;0.80;;;14.90;1.40;;;15.90;100.00;95321.71;645714;212;31514;-73
2022/06/21 01:35:52;;;;;;;0.80;0.70;;;14.80;1.40;;;15.83;100.00;95321.41;646636;216;42408;-73
2022/06/21 01:38:34;;;;;;;0.80;0.50;;;14.70;1.40;;;15.78;100.00;95320.51;647608;216;31475;-73
2022/06/21 01:41:18;;;;;;;0.70;0.45;;;14.70;1.40;;;15.78;100.00;95315.38;647163;216;31549;-73
2022/06/21 01:44:00;;;;;;;0.80;0.60;;;14.70;1.40;;;15.66;100.00;95311.09;645211;216;34493;-73
2022/06/21 01:46:45;;;;;;;0.90;0.60;;;14.70;1.40;;;15.74;100.00;95311.20;644687;216;31519;-73
2022/06/21 01:49:26;;;;;;;0.60;0.50;;;14.70;1.40;;;15.74;100.00;95313.00;648022;216;31543;-74
2022/06/21 01:52:10;;;;;;;1.90;0.90;;;14.70;1.40;;;15.73;100.00;95307.75;644522;216;31676;-73
2022/06/21 01:54:54;;;;;;;1.80;0.70;;;14.70;1.40;;;15.88;100.00;95310.42;645885;212;32048;-73
2022/06/21 01:57:36;;;;;;;0.62;0.40;;;14.70;1.40;;;16.08;100.00;95302.33;647057;216;31510;-73
2022/06/21 02:02:52;;;;;;;0.90;0.68;;;14.70;1.40;;;15.95;100.00;95302.56;645630;216;31496;-72
2022/06/21 02:05:38;;;;;;;1.00;0.40;;;14.70;1.40;;;15.89;100.00;95300.70;647652;212;31516;-72
2022/06/21 02:08:20;;;;;;;0.82;0.40;;;14.70;1.40;;;15.95;100.00;95297.48;646927;212;31500;-73
2022/06/21 02:11:02;;;;;;;2.20;0.70;;;14.70;1.40;;;15.90;100.00;95293.41;646893;216;31476;-73
2022/06/21 02:13:46;;;;;;;0.80;0.43;;;14.60;1.40;;;16.08;100.00;95292.97;646653;216;31706;-73
2022/06/21 02:16:27;;;;;;;0.60;0.55;;;14.70;1.40;;;15.86;100.00;95290.22;645630;216;31460;-73
2022/06/21 02:19:15;;;;;;;0.60;0.50;;;14.60;1.40;;;15.87;100.00;95294.78;646683;212;32053;-73
2022/06/21 02:21:56;;;;;;;1.60;0.70;;;14.60;1.40;;;16.10;100.00;95284.13;647352;216;31545;-73
2022/06/21 02:24:38;;;;;;;0.88;0.47;;;14.60;1.40;;;15.79;100.00;95280.57;619384;225;32362;-73
2022/06/21 02:27:20;;;;;;;0.50;0.40;;;14.60;1.40;;;15.93;100.00;95278.63;646865;212;31681;-73
2022/06/21 02:30:01;;;;;;;0.90;0.50;;;14.60;1.40;;;15.92;100.00;95273.38;631006;221;31952;-72
2022/06/21 02:32:43;;;;;;;1.20;0.60;;;14.60;1.40;;;15.76;100.00;95273.53;617828;226;31791;-72
2022/06/21 02:35:53;;;;;;;1.00;0.60;;;14.50;1.40;;;15.88;100.00;95267.48;647541;216;33311;-72
2022/06/21 02:38:38;;;;;;;2.70;0.85;;;14.50;1.40;;;15.68;100.00;95268.47;647042;216;31477;-72
2022/06/21 02:41:25;;;;;;;1.55;0.90;;;14.50;1.40;;;15.74;100.00;95274.45;645950;216;31584;-73
2022/06/21 02:44:13;;;;;;;1.00;0.50;;;14.40;1.40;;;15.61;100.00;95280.42;646370;216;31507;-72
2022/06/21 02:46:58;;;;;;;0.73;0.60;;;14.40;1.40;;;15.54;100.00;95279.50;646042;216;31517;-72
2022/06/21 02:49:43;;;;;;;0.70;0.70;;;14.40;1.40;;;15.77;100.00;95268.42;645632;216;31542;-73
2022/06/21 02:52:28;;;;;;;0.90;0.47;;;14.40;1.40;;;15.59;100.00;95264.38;646825;216;32389;-72
2022/06/21 02:55:23;;;;;;;1.80;1.00;;;14.40;1.40;;;15.59;100.00;95270.48;646230;212;31647;-73
2022/06/21 02:58:12;;;;;;;0.60;0.40;;;14.50;1.40;;;15.48;100.00;95278.62;646476;212;31530;-72
2022/06/21 03:00:56;;;;;;;0.93;0.50;;;14.40;1.40;;;15.77;100.00;95274.91;647443;216;31527;-74
2022/06/21 03:03:38;;;;;;;2.58;0.50;;;14.40;1.40;;;15.81;100.00;95279.47;645397;216;31473;-73
2022/06/21 03:08:58;;;;;;;1.00;0.50;;;14.40;1.40;;;15.77;100.00;95291.92;647376;216;31464;-73
2022/06/21 03:11:40;;;;;;;0.70;0.50;;;14.30;1.40;;;15.78;100.00;95291.72;646889;216;32023;-73
2022/06/21 03:14:22;;;;;;;0.50;0.40;;;14.40;1.40;;;15.94;100.00;95296.97;645954;216;31638;-74
2022/06/21 03:17:04;;;;;;;1.30;0.60;;;14.50;1.40;;;15.89;100.00;95297.91;646518;212;31505;-73
2022/06/21 03:19:48;;;;;;;0.80;0.40;;;14.40;1.40;;;15.86;100.00;95295.09;645952;216;31487;-73
2022/06/21 03:22:33;;;;;;;0.50;0.40;;;14.40;1.40;;;15.96;100.00;95304.25;647874;216;31558;-73
2022/06/21 03:25:21;;;;;;;0.60;0.47;;;14.40;1.40;;;15.86;100.00;95299.73;646135;216;31479;-73
2022/06/21 03:28:03;;;;;;;0.80;0.50;;;14.40;1.40;;;15.61;100.00;95296.74;646653;212;32235;-73
2022/06/21 03:30:44;;;;;;;0.68;0.50;;;14.30;1.40;;;15.66;100.00;95290.26;647334;212;31451;-73
2022/06/21 03:35:51;;;;;;;0.73;0.47;;;14.30;1.40;;;15.73;100.00;95294.22;645728;216;31735;-73
2022/06/21 03:38:33;;;;;;;0.90;0.40;;;14.30;1.40;;;15.71;100.00;95291.25;647257;212;31511;-72
2022/06/21 03:44:03;;;;;;;0.60;0.50;;;14.40;1.40;;;15.99;100.00;95286.42;648814;214;31533;-73
2022/06/21 03:46:55;;;;;;;0.50;0.40;;;14.40;1.40;;;15.88;100.00;95282.81;647539;212;31463;-73
2022/06/21 03:49:54;;;;;;;0.40;0.30;;;14.50;1.40;;;15.87;100.00;95294.70;649897;216;31464;-72
2022/06/21 03:52:44;;;;;;;2.10;0.40;;;14.50;1.40;;;16.09;100.00;95294.45;639971;216;32498;-71
2022/06/21 03:55:36;;;;;;;1.23;0.70;;;14.60;1.40;;;16.23;100.00;95297.75;646405;216;31560;-71
2022/06/21 03:58:43;;;;;;;0.50;0.40;;;14.60;1.40;;;16.18;100.00;95296.77;650190;216;31598;-72
2022/06/21 04:01:27;;;;;;;1.00;0.60;;;14.50;1.40;;;15.90;100.00;95295.13;648146;216;31564;-71
2022/06/21 04:04:25;;;;;;;0.60;0.50;;;14.50;1.40;;;15.72;100.00;95296.88;646442;216;32060;-73
2022/06/21 04:07:21;;;;;;;0.50;0.30;;;14.40;1.40;;;15.88;100.00;95299.63;645608;216;31482;-72
2022/06/21 04:10:06;;;;;;;0.55;0.40;;;14.50;1.40;;;15.76;100.00;95305.31;647716;212;31834;-72
2022/06/21 04:12:52;;;;;;;0.55;0.47;;;14.40;1.40;;;16.02;100.00;95300.23;651231;216;31511;-71
2022/06/21 04:15:38;;;;;;;0.70;0.40;;;14.50;1.40;;;15.93;100.00;95289.91;648591;216;31476;-71
2022/06/21 04:18:43;;;;;;;0.60;0.50;;;14.50;1.40;;;15.72;100.00;95284.48;649117;212;31715;-72
2022/06/21 04:21:27;;;;;;;0.90;0.60;;;14.50;1.40;;;15.94;100.00;95281.80;650736;212;31473;-72
2022/06/21 04:24:27;;;;;;;0.50;0.40;;;14.50;1.40;;;16.07;100.00;95282.17;648479;216;31460;-72
2022/06/21 04:27:19;;;;;;;0.57;0.50;;;14.50;1.40;;;16.08;100.00;95273.52;645096;216;32108;-72
2022/06/21 04:30:05;;;;;;;0.98;0.75;;;14.70;1.40;;;16.07;100.00;95272.98;648108;212;31547;-72
2022/06/21 04:32:47;;;;;;;0.50;0.30;;;14.70;1.40;;;16.26;100.00;95272.41;647411;216;31552;-72
2022/06/21 04:35:53;;;;;;;2.00;0.50;;;14.70;1.40;;;16.09;100.00;95274.11;645414;216;31516;-73
2022/06/21 04:38:35;;;;;;;0.70;0.40;;;14.70;1.40;;;16.30;100.00;95272.23;646050;216;31637;-72
2022/06/21 04:41:21;;;;;;;0.60;0.40;;;14.70;1.40;;;16.45;100.00;95265.63;651937;216;32077;-74
2022/06/21 04:46:39;;;;;;;0.60;0.55;;;14.90;1.40;;;16.54;100.00;95274.55;619611;226;31864;-73
2022/06/21 04:49:28;;;;;;;0.50;0.40;;;14.90;1.40;;;16.55;100.00;95270.81;646830;216;31497;-71
2022/06/21 04:52:13;;;;;;;1.10;0.40;;;14.90;1.40;;;16.88;100.00;95270.70;648872;212;32058;-71
2022/06/21 04:54:55;;;;;;;0.60;0.50;;;14.90;1.40;;;16.63;100.00;95268.84;619668;226;31856;-71
2022/06/21 04:57:39;;;;;;;0.50;0.40;;;15.00;1.40;;;16.66;100.00;95269.80;648436;212;31511;-71
2022/06/21 05:00:21;;;;;;;0.50;0.40;;;15.00;1.40;;;16.54;100.00;95279.84;648038;216;31781;-72
2022/06/21 05:03:03;;;;;;;0.70;0.50;;;14.90;1.40;;;16.36;100.00;95286.34;646966;212;31485;-72
2022/06/21 05:05:47;;;;;;;1.70;0.52;;;14.90;1.40;;;16.77;100.00;95279.39;646641;216;31561;-72
2022/06/21 05:08:29;;;;;;;0.60;0.40;;;15.10;1.40;;;16.72;100.00;95281.73;645721;216;31545;-71
2022/06/21 05:11:11;;;;;;;1.60;0.70;;;15.10;1.40;;;16.95;100.00;95265.00;647847;216;31543;-71
2022/06/21 05:13:55;;;;;;;0.50;0.50;;;15.10;1.40;;;17.20;100.00;95265.86;649814;212;32088;-71
2022/06/21 05:16:37;;;;;;;0.50;0.47;;;15.20;1.40;;;16.91;100.00;95267.55;649774;216;32631;-72
2022/06/21 05:19:24;;;;;;;0.70;0.55;;;15.20;1.40;;;17.10;100.00;95265.27;646924;216;31517;-72
2022/06/21 05:22:13;;;;;;;0.70;0.50;;;15.40;1.40;;;16.99;100.00;95262.14;617300;222;31935;-73
2022/06/21 05:24:55;;;;;;;0.60;0.50;;;15.40;1.40;;;17.34;100.00;95256.47;648982;216;31861;-73
2022/06/21 05:27:44;;;;;;;0.60;0.60;;;15.60;1.40;;;17.55;100.00;95260.16;647120;212;31467;-72
2022/06/21 05:30:34;;;;;;;0.70;0.50;;;15.60;1.40;;;17.05;100.00;95260.52;649573;216;31465;-72
2022/06/21 05:35:51;;;;;;;0.70;0.50;;;15.60;1.40;;;17.06;100.00;95262.05;645593;216;42118;-72
2022/06/21 05:38:32;;;;;;;1.25;0.60;;;15.60;1.40;;;17.12;100.00;95260.53;648768;216;31500;-71
2022/06/21 05:41:29;;;;;;;1.55;0.57;;;15.70;1.40;;;16.70;99.47;95259.91;647993;212;31747;-72
2022/06/21 05:44:20;;;;;;;0.77;0.40;;;15.50;1.40;;;17.25;100.00;95254.25;646860;216;31491;-72
2022/06/21 05:47:01;;;;;;;0.68;0.57;;;15.80;1.40;;;17.82;100.00;95261.28;647871;216;31871;-72
2022/06/21 05:49:43;;;;;;;0.80;0.80;;;16.00;1.40;;;18.25;96.56;95267.78;648615;216;31506;-71
2022/06/21 05:52:26;;;;;;;1.50;0.70;;;16.10;1.40;;;18.18;95.56;95268.21;642252;212;31744;-71
2022/06/21 05:55:10;;;;;;;3.55;0.75;;;16.20;1.40;;;17.31;91.98;95269.58;649106;212;31897;-72
2022/06/21 05:57:56;;;;;;;0.88;0.88;;;15.90;1.40;;;16.62;92.14;95271.87;650042;216;32004;-71
2022/06/21 06:03:15;;;;;;;0.90;0.70;;;15.60;1.40;;;16.69;95.59;95268.48;650570;216;31650;-72
2022/06/21 06:05:57;;;;;;;0.65;0.60;;;15.70;1.40;;;16.77;95.17;95266.46;644406;216;32299;-73
2022/06/21 06:08:38;;;;;;;0.60;0.40;;;15.80;1.40;;;17.27;94.63;95265.68;646230;216;42179;-72
2022/06/21 06:11:25;;;;;;;1.95;0.70;;;16.00;1.40;;;17.51;93.17;95266.37;647149;212;31549;-71
2022/06/21 06:14:07;;;;;;;0.90;0.52;;;16.10;1.40;;;17.44;91.34;95264.84;649897;216;31450;-72
2022/06/21 06:16:52;;;;;;;0.70;0.60;;;16.20;1.40;;;18.16;92.12;95255.20;646863;216;31509;-73
2022/06/21 06:20:07;;;;;;;3.30;0.50;;;16.50;1.40;;;17.74;90.15;95260.13;646937;216;31459;-71
2022/06/21 06:22:51;;;;;;;1.30;0.70;;;16.20;1.40;;;17.84;91.23;95268.44;644056;216;31508;-72
2022/06/21 06:25:33;;;;;;;0.80;0.50;;;16.30;1.40;;;18.49;92.66;95265.47;645389;212;31474;-72
2022/06/21 06:28:56;;;;;;;2.03;0.62;;;16.70;1.40;;;18.23;90.64;95259.95;619942;226;32254;-73
2022/06/21 06:31:38;;;;;;;2.70;0.50;;;16.90;1.40;;;18.23;91.66;95262.06;646958;212;31515;-72
2022/06/21 06:35:51;;;;;;;3.10;0.70;;;16.20;1.40;;;18.15;95.18;95263.60;644844;216;31515;-72
2022/06/21 06:38:33;;;;;;;2.90;0.90;;;16.60;1.40;;;18.03;92.93;95265.43;645685;216;31668;-72
2022/06/21 06:41:27;;;;;;;1.30;0.70;;;16.60;1.40;;;18.45;94.87;95267.53;644499;216;31489;-72
2022/06/21 06:44:11;;;;;;;1.00;0.80;;;16.80;1.40;;;17.72;95.64;95270.73;619848;222;32233;-72
2022/06/21 06:46:53;;;;;;;1.62;0.82;;;16.40;1.40;;;17.63;99.13;95267.87;619972;226;32041;-72
2022/06/21 06:49:36;;;;;;;1.10;0.60;;;16.50;1.40;;;17.88;97.35;95261.23;619562;222;31863;-72
2022/06/21 06:52:30;;;;;;;1.35;0.70;;;16.70;1.40;;;18.82;94.93;95257.88;642580;212;31762;-72
2022/06/21 06:55:13;;;;;;;1.10;0.90;;;17.20;1.40;;;18.08;97.10;95258.09;645024;216;31840;-72
2022/06/21 06:57:58;;;;;;;0.80;0.80;;;16.90;1.40;;;18.89;97.44;95259.75;646105;216;42278;-72
2022/06/21 07:03:14;;;;;;;0.60;0.50;;;17.40;1.40;;;19.71;91.85;95261.77;646500;212;31846;-72
2022/06/21 07:06:03;;;;;;;0.85;0.70;;;17.80;1.40;;;19.07;91.55;95263.09;645229;216;31667;-72
2022/06/21 07:08:45;;;;;;;3.50;1.00;;;17.30;1.40;;;17.65;94.08;95274.08;646222;216;31599;-72
2022/06/21 07:11:50;;;;;;;1.17;1.08;;;16.50;1.40;;;17.81;96.84;95272.55;643927;216;32163;-72
2022/06/21 07:17:33;;;;;;;0.80;0.50;;;17.10;1.40;;;18.31;93.80;95267.69;646583;212;31501;-73
2022/06/21 07:20:16;;;;;;;0.95;0.50;;;17.10;1.40;;;18.48;92.84;95276.17;647814;212;32406;-72
2022/06/21 07:22:58;;;;;;;4.00;0.90;;;17.20;1.40;;;17.98;90.68;95279.02;618743;222;31875;-72
2022/06/21 07:25:40;;;;;;;2.30;1.00;;;16.80;1.40;;;18.04;90.97;95279.73;644457;216;32156;-72
2022/06/21 07:28:28;;;;;;;1.10;0.70;;;16.90;1.40;;;18.67;88.77;95276.98;646493;216;31848;-72
2022/06/21 07:31:10;;;;;;;2.92;0.73;;;17.20;1.40;;;18.26;90.54;95271.69;647187;216;31708;-73
2022/06/21 07:35:51;;;;;;;2.40;0.60;;;17.40;1.40;;;19.65;90.18;95271.44;645979;216;31674;-72
2022/06/21 07:38:38;;;;;;;0.85;0.60;;;18.10;1.40;;;20.08;85.77;95262.69;645782;216;31749;-72
2022/06/21 07:41:25;;;;;;;2.40;0.70;;;18.50;1.40;;;19.97;83.43;95268.92;645274;216;31496;-72
2022/06/21 07:44:11;;;;;;;0.80;0.70;;;18.30;1.40;;;19.24;88.30;95264.41;646294;216;31510;-72
2022/06/21 07:46:57;;;;;;;0.70;0.60;;;18.20;1.40;;;21.03;84.40;95258.83;619467;222;32447;-73
2022/06/21 07:49:41;;;;;;;1.37;1.23;;;18.90;1.40;;;20.76;82.24;95264.53;647039;216;42218;-72
2022/06/21 07:52:34;;;;;;;1.63;0.60;;;19.00;1.40;;;21.06;80.60;95261.06;643310;216;31770;-72
2022/06/21 07:55:21;;;;;;;1.80;0.70;;;19.10;1.40;;;20.98;81.57;95262.29;644687;216;31634;-73
2022/06/21 07:58:03;;;;;;;2.35;1.00;;;19.00;1.40;;;22.11;81.39;95251.20;618760;226;32069;-72
2022/06/21 08:09:11;;;;;;;3.35;0.80;;;20.10;1.40;;;22.17;76.43;95251.13;646254;216;31806;-72
2022/06/21 08:11:51;;;;;;;2.03;0.88;;;20.10;1.40;;;22.74;73.96;95249.64;618442;226;31822;-73
2022/06/21 08:14:33;;;;;;;1.33;0.80;;;20.30;1.40;;;23.42;73.07;95264.16;647144;216;42346;-73
2022/06/21 08:17:24;;;;;;;0.88;0.70;;;20.30;1.40;;;23.42;73.28;95262.49;645622;216;42309;-73
2022/06/21 08:20:08;;;;;;;0.90;0.60;;;20.30;1.40;;;22.80;72.76;95262.87;646478;216;31650;-72
2022/06/21 08:23:09;;;;;;;1.05;0.95;;;20.30;1.40;;;23.84;71.30;95266.70;619790;226;31800;-72
2022/06/21 08:26:13;;;;;;;3.62;0.90;;;20.40;1.40;;;24.05;72.39;95274.44;646065;212;31510;-72
2022/06/21 08:29:05;;;;;;;1.00;0.90;;;20.50;1.40;;;23.61;71.75;95264.72;646588;212;31508;-73
2022/06/21 08:31:47;;;;;;;0.77;0.70;;;20.70;1.40;;;23.79;66.74;95268.45;646836;216;31525;-72
2022/06/21 08:35:52;;;;;;;4.43;1.00;;;21.00;1.40;;;24.13;67.73;95268.09;648117;216;32096;-72
2022/06/21 08:38:35;;;;;;;3.12;1.30;;;21.10;1.40;;;23.85;68.42;95268.14;646326;216;31561;-73
2022/06/21 08:45:40;;;;;;;1.10;0.60;;;20.90;1.40;;;24.84;67.90;95265.77;646088;216;31559;-73
2022/06/21 08:48:12;;;;;;;3.90;1.30;;;21.80;1.40;;;21.97;73.60;95265.78;645820;216;31694;-72
2022/06/21 08:51:12;;;;;;;3.70;1.30;;;20.40;1.40;;;21.49;78.16;95271.16;646699;216;31794;-72
2022/06/21 08:55:48;;;;;;;3.28;1.42;;;20.40;1.40;;;23.26;72.18;95272.50;646058;216;31898;-73
2022/06/21 08:58:35;;;;;;;4.90;1.65;;;20.20;1.40;;;22.60;76.25;95277.97;644626;216;31710;-73
2022/06/21 09:01:32;;;;;;;1.60;1.20;;;20.20;1.40;;;23.95;71.87;95273.13;646733;216;31506;-72
2022/06/21 09:05:02;;;;;;;2.10;1.00;;;21.10;1.40;;;24.50;73.21;95271.70;647365;216;31525;-72
2022/06/21 09:08:02;;;;;;;1.95;1.30;;;22.00;1.40;;;24.36;69.19;95280.15;646462;212;31563;-71
2022/06/21 09:10:48;;;;;;;2.60;1.10;;;21.70;1.40;;;24.44;70.21;95286.70;645757;216;32231;-72
2022/06/21 09:13:33;;;;;;;2.10;1.10;;;22.30;1.40;;;24.47;65.86;95278.77;646638;216;34678;-73
2022/06/21 09:16:27;;;;;;;2.10;1.10;;;22.00;1.40;;;25.96;67.41;95274.11;647481;216;31548;-72
2022/06/21 09:19:26;;;;;;;1.12;1.00;;;22.70;1.40;;;24.99;66.74;95277.83;647298;216;31622;-73
2022/06/21 09:22:16;;;;;;;1.50;1.20;;;22.00;1.40;;;25.20;68.45;95268.67;646736;216;31529;-72
2022/06/21 09:25:00;;;;;;;1.50;1.23;;;21.80;1.40;;;25.09;68.87;95265.79;647252;216;32270;-73
2022/06/21 09:27:42;;;;;;;1.70;0.80;;;22.30;1.40;;;25.20;66.96;95266.47;646931;216;31493;-72
2022/06/21 09:30:27;;;;;;;1.15;1.00;;;23.10;1.40;;;27.04;64.30;95259.34;645804;216;31483;-73
2022/06/21 09:35:57;;;;;;;4.72;1.20;;;24.30;1.40;;;27.13;62.29;95250.37;645885;216;31592;-73
2022/06/21 09:38:48;;;;;;;3.53;1.52;;;24.20;1.40;;;26.76;58.83;95256.25;646494;216;31508;-73
2022/06/21 09:41:48;;;;;;;3.40;1.23;;;23.10;1.40;;;27.11;63.95;95256.48;645742;216;31898;-73
2022/06/21 09:44:51;;;;;;;2.03;1.40;;;22.90;1.40;;;25.84;62.48;95251.92;645464;216;31725;-73
2022/06/21 09:47:45;;;;;;;5.10;1.37;;;22.30;1.40;;;26.15;68.18;95255.58;645506;216;31727;-72
2022/06/21 09:50:49;;;;;;;4.40;1.20;;;22.50;1.40;;;26.49;64.24;95257.73;647763;216;31557;-72
2022/06/21 09:53:38;;;;;;;1.50;1.00;;;23.00;1.40;;;26.73;64.46;95250.08;637671;216;42322;-73
2022/06/21 09:56:43;;;;;;;2.83;1.52;;;22.80;1.40;;;27.17;61.56;95244.59;646461;216;31592;-73
2022/06/21 09:59:25;;;;;;;3.80;1.70;;;22.80;1.40;;;26.80;63.60;95240.05;646307;216;42188;-73
2022/06/21 10:04:53;;;;;;;1.60;1.50;;;22.00;1.40;;;25.57;67.08;95230.20;646038;212;42588;-73
2022/06/21 10:08:14;;;;;;;1.35;1.25;;;23.00;1.40;;;27.24;64.00;95236.32;645931;216;31510;-73
2022/06/21 10:11:08;;;;;;;3.20;1.70;;;25.40;1.40;;;27.77;60.51;95234.16;646964;216;31721;-72
2022/06/21 10:13:54;;;;;;;1.60;1.50;;;25.30;1.40;;;27.69;61.74;95236.25;645833;216;32040;-73
2022/06/21 10:17:03;;;;;;;4.00;1.80;;;23.80;1.40;;;28.46;58.89;95230.06;618358;226;32490;-73
2022/06/21 10:20:08;;;;;;;1.50;1.20;;;24.30;1.40;;;25.29;67.51;95230.26;646412;216;31547;-73
2022/06/21 10:23:05;;;;;;;2.40;1.30;;;23.10;1.40;;;27.39;64.36;95224.34;646521;216;31588;-73
2022/06/21 10:26:31;;;;;;;2.45;2.12;;;24.00;1.40;;;27.43;62.38;95235.00;647532;216;31612;-73
2022/06/21 10:29:36;;;;;;;4.15;2.00;;;25.90;1.40;;;25.78;65.67;95239.54;645743;216;31563;-73
2022/06/21 10:32:55;;;;;;;2.97;2.37;;;24.60;1.40;;;27.68;61.78;95230.70;646966;216;32056;-73
2022/06/21 10:35:58;;;;;;;2.85;2.05;;;24.60;1.40;;;27.92;61.29;95225.62;647088;216;31762;-73
2022/06/21 10:38:58;;;;;;;3.08;2.05;;;25.60;1.40;;;27.23;62.00;95223.03;647576;216;32381;-73
2022/06/21 10:44:28;;;;;;;3.30;2.60;;;25.30;1.40;;;30.30;59.92;95204.84;642223;217;31729;-73
2022/06/21 10:49:46;;;;;;;4.30;2.20;;;28.40;1.40;;;28.07;59.04;95208.72;647154;216;42223;-74
2022/06/21 10:52:35;;;;;;;4.60;2.75;;;25.50;1.40;;;30.62;58.06;95200.85;642462;216;31687;-71
2022/06/21 10:55:20;;;;;;;4.30;2.08;;;26.30;1.40;;;32.68;54.53;95192.81;645833;216;31602;-73
2022/06/21 10:58:22;;;;;;;5.90;2.65;;;28.80;1.40;;;34.14;49.43;95191.92;645834;216;42185;-73
2022/06/21 11:01:18;;;;;;;2.20;2.00;;;30.30;1.40;;;32.85;52.53;95188.24;646616;216;42455;-74
2022/06/21 11:04:39;;;;;;;4.35;2.42;;;29.00;1.40;;;33.63;51.09;95186.41;631989;221;31900;-72
2022/06/21 11:07:52;;;;;;;4.72;2.40;;;29.00;1.40;;;31.15;50.76;95189.83;618544;222;32031;-73
2022/06/21 11:10:36;;;;;;;2.28;1.90;;;26.60;1.40;;;32.62;54.49;95185.17;646669;216;31603;-71
2022/06/21 11:13:18;;;;;;;4.55;2.47;;;28.00;1.40;;;33.84;46.56;95178.80;646659;216;31597;-72
2022/06/21 11:16:04;;;;;;;1.73;1.62;;;28.30;1.40;;;33.50;50.98;95179.05;640840;217;34777;-72
2022/06/21 11:21:44;;;;;;;2.37;2.15;;;29.10;1.40;;;32.18;47.65;95172.41;646674;216;31594;-72
2022/06/21 11:24:39;;;;;;;2.33;1.75;;;28.00;1.40;;;29.94;53.35;95174.12;647834;216;31938;-72
2022/06/21 11:27:25;;;;;;;5.40;2.67;;;26.40;1.40;;;31.39;53.16;95168.78;645963;212;31656;-72
2022/06/21 11:30:09;;;;;;;9.88;2.80;;;27.50;1.40;;;32.00;48.57;95160.97;647073;216;31602;-72
2022/06/21 11:36:16;;;;;;;3.80;2.47;;;28.40;1.40;;;33.23;47.23;95159.41;647057;213;32204;-72
2022/06/21 11:39:11;;;;;;;2.58;2.00;;;27.80;1.40;;;33.05;48.88;95161.06;645916;216;31801;-71
2022/06/21 11:42:30;;;;;;;2.25;2.05;;;28.00;1.40;;;35.02;49.80;95154.15;647644;216;31610;-71
2022/06/21 11:46:46;;;;;;;2.40;2.12;;;30.00;1.40;;;32.41;48.03;95143.25;647171;216;32244;-72
2022/06/21 11:49:33;;;;;;;2.03;1.90;;;28.90;1.40;;;35.69;45.72;95124.70;641498;216;31605;-73
2022/06/21 11:53:06;;;;;;;3.33;1.80;;;30.90;1.40;;;37.19;42.59;95111.64;647151;212;31706;-71
2022/06/21 11:55:51;;;;;;;2.90;2.10;;;30.80;1.40;;;33.83;44.88;95116.91;647254;216;31802;-72
2022/06/21 11:58:49;;;;;;;2.60;1.87;;;29.00;1.40;;;34.07;47.84;95114.66;646973;216;31628;-71
2022/06/21 12:01:46;;;;;;;2.62;1.90;;;28.20;1.40;;;35.18;49.58;95096.94;647195;216;32003;-71
2022/06/21 12:04:47;;;;;;;2.40;2.20;;;29.20;1.40;;;36.59;45.01;95082.11;645352;216;31566;-71
2022/06/21 12:07:37;;;;;;;2.20;2.00;;;31.00;1.40;;;35.28;44.24;95086.55;645965;216;31604;-71
2022/06/21 12:10:20;;;;;;;4.75;2.10;;;29.70;1.40;;;30.45;51.36;95098.16;646876;216;31601;-72
2022/06/21 12:13:10;;;;;;;3.20;2.78;;;26.30;1.40;;;28.52;56.90;95109.91;647715;216;31602;-71
2022/06/21 12:16:16;;;;;;;4.07;2.72;;;25.60;1.40;;;31.92;52.25;95101.52;646482;216;31893;-71
2022/06/21 12:18:54;;;;;;;3.10;2.90;;;28.10;1.40;;;34.24;51.18;95103.58;645955;216;32017;-71
2022/06/21 12:21:36;;;;;;;5.78;2.28;;;29.30;1.40;;;34.90;48.66;95108.80;645415;216;31695;-71
2022/06/21 12:24:20;;;;;;;3.20;2.70;;;29.50;1.40;;;37.56;43.85;95106.01;646347;216;32147;-72
2022/06/21 12:27:03;;;;;;;3.83;2.42;;;30.30;1.40;;;37.61;40.90;95097.55;646513;212;31582;-71
2022/06/21 12:29:44;;;;;;;2.83;2.50;;;30.10;1.40;;;36.60;45.04;95070.36;646854;216;32414;-74
2022/06/21 12:32:26;;;;;;;3.30;2.50;;;30.20;1.40;;;36.04;44.78;95043.21;595897;222;32744;-72
2022/06/21 12:36:13;;;;;;;3.62;2.75;;;29.30;1.40;;;32.81;47.62;95015.25;645177;212;31596;-71
2022/06/21 12:38:59;;;;;;;2.67;2.10;;;28.50;1.40;;;34.92;45.96;95022.75;646946;216;31679;-72
2022/06/21 12:41:58;;;;;;;2.50;2.30;;;28.90;1.40;;;35.11;48.25;95042.30;647465;216;31545;-71
2022/06/21 12:45:24;;;;;;;2.53;2.30;;;29.70;1.40;;;36.68;43.51;95054.47;647544;216;31591;-71
2022/06/21 12:48:11;;;;;;;3.45;2.37;;;30.60;1.40;;;38.59;42.28;95060.06;646400;216;31598;-71
2022/06/21 12:50:57;;;;;;;3.20;3.00;;;30.70;1.40;;;38.77;39.70;95038.50;646928;216;31714;-72
2022/06/21 12:53:52;;;;;;;2.62;2.42;;;30.50;1.40;;;38.18;39.99;95040.88;620025;225;32482;-76
2022/06/21 12:56:42;;;;;;;3.25;2.45;;;30.00;1.40;;;37.77;41.05;95036.50;646423;216;42256;-73
2022/06/21 12:59:46;;;;;;;2.53;1.92;;;30.40;1.40;;;37.83;39.92;95033.11;647013;216;43040;-72